createdAt,value
2023-03-13T00:04:51.157Z,11.96
2023-03-13T00:24:57.003Z,11.96
2023-03-13T00:45:02.756Z,12.54
2023-03-13T01:05:08.540Z,12.42
2023-03-13T01:25:14.277Z,11.99
2023-03-13T01:45:20.066Z,12.38
2023-03-13T02:05:25.791Z,11.71
2023-03-13T02:25:31.671Z,11.71
2023-03-13T02:45:37.456Z,11.01
2023-03-13T03:05:43.212Z,11.21
2023-03-13T03:25:49.067Z,14.02
2023-03-13T03:45:55.045Z,13.31
2023-03-13T04:06:00.826Z,12.63
2023-03-13T04:26:06.734Z,10.99
2023-03-13T04:46:12.557Z,12.20
2023-03-13T05:06:20.385Z,11.23
2023-03-13T05:26:25.207Z,10.60
2023-03-13T05:46:31.098Z,10.43
2023-03-13T06:06:36.871Z,9.49
2023-03-13T06:26:42.843Z,8.70
2023-03-13T06:46:48.705Z,7.55
2023-03-13T07:06:54.528Z,6.67
2023-03-13T07:27:07.262Z,5.78
2023-03-13T07:47:05.704Z,5.84
2023-03-13T08:07:11.527Z,5.48
2023-03-13T08:27:17.336Z,4.72
2023-03-13T08:47:23.073Z,4.49
2023-03-13T09:07:28.843Z,4.29
2023-03-13T09:27:34.628Z,4.21
2023-03-13T09:47:50.040Z,3.76
2023-03-13T10:07:45.806Z,3.34
2023-03-13T10:27:52.246Z,4.20
2023-03-13T10:47:58.008Z,3.31
2023-03-13T11:08:03.871Z,3.31
2023-03-13T11:28:10.061Z,2.71
2023-03-13T11:48:16.355Z,2.66
2023-03-13T12:08:22.665Z,2.70
2023-03-13T12:28:28.514Z,2.91
2023-03-13T12:48:34.791Z,2.75
2023-03-13T13:08:41.033Z,2.50
2023-03-13T13:28:46.831Z,2.31
2023-03-13T13:48:52.675Z,2.18
2023-03-13T14:08:58.531Z,2.30
2023-03-13T14:29:06.714Z,2.36
2023-03-13T14:49:10.181Z,2.60
2023-03-13T15:09:16.452Z,2.85
2023-03-13T15:29:22.215Z,3.09
2023-03-13T15:49:28.479Z,7.16
2023-03-13T16:09:34.721Z,2.84
2023-03-13T16:29:40.944Z,3.12
2023-03-13T16:49:47.746Z,3.03
2023-03-13T17:09:52.637Z,2.96
2023-03-13T17:29:58.848Z,3.74
2023-03-13T17:50:05.131Z,3.12
2023-03-13T18:10:10.907Z,3.51
2023-03-13T18:30:16.952Z,3.38
2023-03-13T18:50:25.529Z,5.15
2023-03-13T19:10:31.364Z,5.64
2023-03-13T19:30:37.608Z,4.22
2023-03-13T19:50:43.345Z,4.40
2023-03-13T20:10:49.136Z,3.87
2023-03-13T20:51:02.415Z,4.36
2023-03-13T21:11:08.154Z,3.47
2023-03-13T21:31:14.070Z,3.62
2023-03-13T21:51:19.903Z,7.06
2023-03-13T22:11:25.687Z,3.78
2023-03-13T22:31:31.923Z,2.62
2023-03-13T22:51:37.685Z,2.96
2023-03-13T23:11:43.920Z,2.87
2023-03-13T23:31:49.781Z,2.99
2023-03-13T23:51:55.582Z,2.98
